createdAt,value
2022-12-20T00:02:11.135Z,101932.56
2022-12-20T00:04:40.755Z,101927.31
2022-12-20T00:07:10.534Z,101922.97
2022-12-20T00:09:41.451Z,101926.44
2022-12-20T00:12:12.274Z,101928.19
2022-12-20T00:14:42.204Z,101927.31
2022-12-20T00:17:12.020Z,101933.44
2022-12-20T00:19:41.708Z,101919.50
2022-12-20T00:22:11.412Z,101922.09
2022-12-20T00:24:42.405Z,101926.47
2022-12-20T00:27:11.993Z,101926.47
2022-12-20T00:29:41.611Z,101927.34
2022-12-20T00:32:11.247Z,101916.00
2022-12-20T00:34:40.915Z,101914.25
2022-12-20T00:37:10.502Z,101920.34
2022-12-20T00:39:40.429Z,101915.97
2022-12-20T00:42:11.326Z,101915.09
2022-12-20T00:44:40.964Z,101926.47
2022-12-20T00:47:10.581Z,101924.69
2022-12-20T00:49:40.195Z,101924.69
2022-12-20T00:52:09.755Z,101911.63
2022-12-20T00:54:39.354Z,101920.38
2022-12-20T00:57:08.937Z,101917.72
2022-12-20T00:59:39.844Z,101901.16
2022-12-20T01:02:09.501Z,101907.28
2022-12-20T01:04:39.241Z,101905.53
2022-12-20T01:07:08.817Z,101901.16
2022-12-20T01:09:38.359Z,101907.25
2022-12-20T01:12:09.266Z,101907.25
2022-12-20T01:14:41.035Z,101892.44
2022-12-20T01:17:11.206Z,101893.28
2022-12-20T01:19:41.385Z,101892.41
2022-12-20T01:22:11.136Z,101882.81
2022-12-20T01:24:42.077Z,101881.94
2022-12-20T01:27:11.679Z,101871.47
2022-12-20T01:29:43.909Z,101874.09
2022-12-20T01:32:13.569Z,101875.84
2022-12-20T01:34:43.170Z,101863.63
2022-12-20T01:37:12.776Z,101854.03
2022-12-20T01:39:42.333Z,101852.28
2022-12-20T01:42:14.734Z,101845.31
2022-12-20T01:44:59.621Z,101847.91
2022-12-20T01:47:31.901Z,101848.78
2022-12-20T01:50:04.222Z,101835.69
2022-12-20T01:52:36.955Z,101826.13
2022-12-20T01:55:09.017Z,101829.59
2022-12-20T01:57:42.040Z,101827.81
2022-12-20T02:00:13.702Z,101821.72
2022-12-20T02:02:43.975Z,101823.50
2022-12-20T02:05:14.809Z,101836.56
2022-12-20T02:07:45.210Z,101833.09
2022-12-20T02:10:14.822Z,101833.06
2022-12-20T02:12:46.336Z,101832.16
2022-12-20T02:15:23.211Z,101827.78
2022-12-20T02:17:58.732Z,101821.69
2022-12-20T02:20:43.048Z,101821.69
2022-12-20T02:23:31.553Z,101821.69
2022-12-20T02:26:12.253Z,101827.78
2022-12-20T02:28:51.553Z,101821.69
2022-12-20T02:31:25.417Z,101817.34
2022-12-20T02:33:57.052Z,101824.31
2022-12-20T02:36:26.938Z,101820.00
2022-12-20T02:38:56.573Z,101814.72
2022-12-20T02:41:28.314Z,101809.50
2022-12-20T02:44:18.631Z,101797.31
2022-12-20T02:46:50.915Z,101785.09
2022-12-20T02:49:23.612Z,101780.69
2022-12-20T02:51:54.380Z,101790.25
2022-12-20T02:54:24.179Z,101782.34
2022-12-20T02:56:57.093Z,101778.00
2022-12-20T02:59:30.616Z,101782.34
2022-12-20T03:02:01.956Z,101778.81
2022-12-20T03:04:33.375Z,101781.41
2022-12-20T03:07:03.710Z,101782.31
2022-12-20T03:09:34.373Z,101784.13
2022-12-20T03:12:05.332Z,101779.72
2022-12-20T03:14:35.211Z,101778.91
2022-12-20T03:17:07.398Z,101777.13
2022-12-20T03:19:36.946Z,101775.34
2022-12-20T03:22:06.555Z,101778.78
2022-12-20T03:24:36.014Z,101770.13
2022-12-20T03:27:05.618Z,101766.63
2022-12-20T03:29:35.194Z,101771.00
2022-12-20T03:32:04.972Z,101768.38
2022-12-20T03:34:35.811Z,101771.84
2022-12-20T03:37:05.297Z,101768.31
2022-12-20T03:39:35.354Z,101777.03
2022-12-20T03:42:05.224Z,101779.66
2022-12-20T03:44:34.812Z,101773.47
2022-12-20T03:47:04.601Z,101771.78
2022-12-20T03:49:35.527Z,101770.00
2022-12-20T03:52:05.295Z,101774.44
2022-12-20T03:54:34.774Z,101777.91
2022-12-20T03:57:04.279Z,101781.41
2022-12-20T03:59:33.954Z,101782.28
2022-12-20T04:02:03.786Z,101778.78
2022-12-20T04:04:33.470Z,101772.69
2022-12-20T04:07:04.654Z,101771.88
2022-12-20T04:09:34.494Z,101777.06
2022-12-20T04:12:04.832Z,101769.28
2022-12-20T04:14:36.249Z,101764.91
2022-12-20T04:17:07.406Z,101765.78
2022-12-20T04:19:36.913Z,101763.16
2022-12-20T04:22:08.023Z,101759.69
2022-12-20T04:24:37.615Z,101761.38
2022-12-20T04:27:07.104Z,101757.91
2022-12-20T04:29:36.627Z,101763.16
2022-12-20T04:32:06.177Z,101751.84
2022-12-20T04:34:35.664Z,101751.84
2022-12-20T04:37:05.194Z,101751.88
2022-12-20T04:39:36.118Z,101756.22
2022-12-20T04:42:05.639Z,101762.31
2022-12-20T04:44:35.368Z,101748.38
2022-12-20T04:47:05.231Z,101744.06
2022-12-20T04:49:34.767Z,101751.91
2022-12-20T04:52:18.160Z,101746.66
2022-12-20T04:54:49.067Z,101750.16
2022-12-20T04:57:19.107Z,101746.66
2022-12-20T04:59:48.574Z,101753.63
2022-12-20T05:02:18.358Z,101758.06
2022-12-20T05:04:47.971Z,101752.88
2022-12-20T05:07:17.611Z,101751.13
2022-12-20T05:09:47.153Z,101757.22
2022-12-20T05:12:20.057Z,101755.47
2022-12-20T05:14:49.989Z,101751.13
2022-12-20T05:17:20.073Z,101755.47
2022-12-20T05:19:49.571Z,101745.88
2022-12-20T05:22:36.660Z,101738.91
2022-12-20T05:25:24.222Z,101729.31
2022-12-20T05:27:55.283Z,101726.69
2022-12-20T05:30:25.096Z,101731.94
2022-12-20T05:32:55.896Z,101732.78
2022-12-20T05:35:25.399Z,101739.78
2022-12-20T05:37:55.167Z,101737.19
2022-12-20T05:40:24.666Z,101740.66
2022-12-20T05:42:55.996Z,101736.28
2022-12-20T05:45:25.727Z,101730.19
2022-12-20T05:47:55.526Z,101722.34
2022-12-20T05:50:25.021Z,101728.44
2022-12-20T05:52:54.675Z,101726.72
2022-12-20T05:55:24.587Z,101720.56
2022-12-20T05:57:56.895Z,101719.69
2022-12-20T06:00:26.556Z,101717.91
2022-12-20T06:02:56.324Z,101715.28
2022-12-20T06:05:26.444Z,101730.09
2022-12-20T06:07:55.881Z,101724.88
2022-12-20T06:10:25.451Z,101725.72
2022-12-20T06:12:57.036Z,101725.72
2022-12-20T06:15:31.911Z,101728.31
2022-12-20T06:18:01.741Z,101723.94
2022-12-20T06:20:31.342Z,101730.06
2022-12-20T06:23:01.261Z,101721.31
2022-12-20T06:25:31.139Z,101728.31
2022-12-20T06:28:02.170Z,101724.78
2022-12-20T06:30:34.170Z,101721.28
2022-12-20T06:33:04.216Z,101730.03
2022-12-20T06:35:33.745Z,101727.41
2022-12-20T06:38:03.175Z,101727.34
2022-12-20T06:40:32.654Z,101720.31
2022-12-20T06:43:03.551Z,101717.72
2022-12-20T06:45:39.282Z,101721.16
2022-12-20T06:48:11.318Z,101718.50
2022-12-20T06:50:40.887Z,101724.66
2022-12-20T06:53:10.470Z,101729.91
2022-12-20T06:55:40.843Z,101729.03
2022-12-20T06:58:11.838Z,101740.34
2022-12-20T07:00:41.458Z,101735.06
2022-12-20T07:03:11.181Z,101733.28
2022-12-20T07:05:41.047Z,101734.94
2022-12-20T07:08:10.558Z,101734.91
2022-12-20T07:10:40.063Z,101722.66
2022-12-20T07:13:11.496Z,101720.03
2022-12-20T07:15:41.560Z,101719.06
2022-12-20T07:18:11.852Z,101716.50
2022-12-20T07:20:41.638Z,101718.22
2022-12-20T07:23:11.075Z,101729.56
2022-12-20T07:25:40.580Z,101726.88
2022-12-20T07:28:12.335Z,101726.00
2022-12-20T07:30:41.803Z,101725.88
2022-12-20T07:33:11.354Z,101722.09
2022-12-20T07:35:41.080Z,101717.53
2022-12-20T07:38:10.859Z,101722.56
2022-12-20T07:40:41.281Z,101722.41
2022-12-20T07:43:12.106Z,101724.19
2022-12-20T07:45:41.578Z,101723.41
2022-12-20T07:48:15.906Z,101721.66
2022-12-20T07:50:49.580Z,101730.50
2022-12-20T07:53:19.178Z,101726.06
2022-12-20T07:55:49.202Z,101713.69
2022-12-20T07:58:20.827Z,101710.88
2022-12-20T08:00:50.832Z,101703.91
2022-12-20T08:03:22.527Z,101705.72
2022-12-20T08:05:55.377Z,101701.28
2022-12-20T08:08:25.496Z,101692.47
2022-12-20T08:10:55.294Z,101685.22
2022-12-20T08:13:26.673Z,101692.97
2022-12-20T08:15:56.583Z,101691.44
2022-12-20T08:18:43.509Z,101677.94
2022-12-20T08:21:14.662Z,101693.78
2022-12-20T08:23:44.483Z,101684.97
2022-12-20T08:26:13.943Z,101681.34
2022-12-20T08:28:44.923Z,101675.25
2022-12-20T08:31:14.721Z,101680.59
2022-12-20T08:33:44.332Z,101680.38
2022-12-20T08:36:14.211Z,101677.75
2022-12-20T08:38:43.656Z,101669.78
2022-12-20T08:41:15.000Z,101664.53
2022-12-20T08:43:46.122Z,101660.91
2022-12-20T08:46:16.001Z,101666.94
2022-12-20T08:48:45.767Z,101657.06
2022-12-20T08:51:15.436Z,101651.81
2022-12-20T08:53:44.974Z,101662.31
2022-12-20T08:56:15.489Z,101653.63
2022-12-20T08:58:46.775Z,101650.28
2022-12-20T09:01:17.112Z,101653.69
2022-12-20T09:03:48.440Z,101648.22
2022-12-20T09:06:19.751Z,101646.28
2022-12-20T09:08:49.870Z,101644.53
2022-12-20T09:11:20.268Z,101632.09
2022-12-20T09:13:52.699Z,101637.25
2022-12-20T09:16:24.417Z,101628.56
2022-12-20T09:19:00.762Z,101618.84
2022-12-20T09:21:34.067Z,101621.31
2022-12-20T09:24:03.544Z,101620.50
2022-12-20T09:26:35.224Z,101613.44
2022-12-20T09:29:06.670Z,101623.78
2022-12-20T09:31:37.081Z,101614.44
2022-12-20T09:34:06.767Z,101609.00
2022-12-20T09:36:36.982Z,101609.78
2022-12-20T09:39:06.582Z,101595.75
2022-12-20T09:41:38.432Z,101588.81
2022-12-20T09:44:12.954Z,101585.97
2022-12-20T09:46:42.856Z,101582.50
2022-12-20T09:49:16.223Z,101575.44
2022-12-20T09:51:59.560Z,101571.84
2022-12-20T09:54:35.541Z,101575.31
2022-12-20T09:57:15.618Z,101563.63
2022-12-20T09:59:49.883Z,101561.97
2022-12-20T10:05:14.775Z,101551.38
2022-12-20T10:07:49.425Z,101549.81
2022-12-20T10:10:36.494Z,101535.41
2022-12-20T10:13:11.801Z,101531.81
2022-12-20T10:15:47.361Z,101543.06
2022-12-20T10:18:25.734Z,101532.19
2022-12-20T10:20:59.274Z,101531.03
2022-12-20T10:23:34.865Z,101528.31
2022-12-20T10:26:09.866Z,101525.72
2022-12-20T10:28:41.002Z,101526.38
2022-12-20T10:31:14.669Z,101519.41
2022-12-20T10:33:45.207Z,101513.97
2022-12-20T10:36:22.010Z,101504.50
2022-12-20T10:38:52.669Z,101507.81
2022-12-20T10:41:23.831Z,101504.31
2022-12-20T10:43:59.080Z,101499.03
2022-12-20T10:46:41.223Z,101497.25
2022-12-20T10:49:37.953Z,101480.31
2022-12-20T10:52:13.269Z,101476.72
2022-12-20T10:54:43.918Z,101478.25
2022-12-20T10:57:19.598Z,101474.81
2022-12-20T10:59:52.196Z,101467.75
2022-12-20T11:02:31.801Z,101471.47
2022-12-20T11:05:23.097Z,101462.47
2022-12-20T11:08:33.581Z,101455.47
2022-12-20T11:10:44.567Z,101454.53
2022-12-20T11:13:22.529Z,101446.56
2022-12-20T11:15:55.511Z,101440.31
2022-12-20T11:18:35.038Z,101445.63
2022-12-20T11:21:17.013Z,101436.56
2022-12-20T11:23:53.005Z,101430.66
2022-12-20T11:26:30.219Z,101424.50
2022-12-20T11:29:04.140Z,101422.69
2022-12-20T11:31:41.430Z,101417.38
2022-12-20T11:34:20.882Z,101419.88
2022-12-20T11:37:11.494Z,101410.06
2022-12-20T11:39:46.602Z,101401.59
2022-12-20T11:42:19.575Z,101401.50
2022-12-20T11:45:03.522Z,101404.13
2022-12-20T11:47:49.903Z,101402.00
2022-12-20T11:50:34.195Z,101400.66
2022-12-20T11:53:08.840Z,101385.00
2022-12-20T11:55:41.786Z,101388.28
2022-12-20T11:58:20.009Z,101388.47
2022-12-20T12:00:54.459Z,101388.53
2022-12-20T12:03:29.093Z,101378.09
2022-12-20T12:06:03.119Z,101375.31
2022-12-20T12:08:37.083Z,101378.56
2022-12-20T12:11:25.499Z,101369.81
2022-12-20T12:14:00.433Z,101365.38
2022-12-20T12:16:33.334Z,101369.84
2022-12-20T12:19:03.500Z,101368.97
2022-12-20T12:21:38.288Z,101371.66
2022-12-20T12:24:13.269Z,101371.69
2022-12-20T12:26:42.933Z,101371.81
2022-12-20T12:29:14.204Z,101374.28
2022-12-20T12:31:46.593Z,101360.19
2022-12-20T12:34:23.977Z,101357.47
2022-12-20T12:37:08.464Z,101361.94
2022-12-20T12:39:58.980Z,101354.06
2022-12-20T12:42:44.883Z,101346.22
2022-12-20T12:45:17.893Z,101343.56
2022-12-20T12:47:51.346Z,101348.84
2022-12-20T12:50:25.320Z,101343.56
2022-12-20T12:52:56.390Z,101342.72
2022-12-20T12:55:40.542Z,101346.03
2022-12-20T12:58:33.732Z,101348.91
2022-12-20T13:01:05.526Z,101350.69
2022-12-20T13:03:43.212Z,101336.56
2022-12-20T13:06:33.847Z,101340.22
2022-12-20T13:09:19.103Z,101337.53
2022-12-20T13:11:59.434Z,101334.84
2022-12-20T13:14:55.226Z,101329.63
2022-12-20T13:17:47.079Z,101333.13
2022-12-20T13:20:19.083Z,101319.88
2022-12-20T13:23:14.988Z,101329.44
2022-12-20T13:25:45.908Z,101323.50
2022-12-20T13:28:34.147Z,101327.88
2022-12-20T13:31:22.566Z,101324.56
2022-12-20T13:33:53.454Z,101321.91
2022-12-20T13:36:37.285Z,101320.16
2022-12-20T13:39:25.356Z,101323.59
2022-12-20T13:42:08.242Z,101319.34
2022-12-20T13:44:42.117Z,101319.16
2022-12-20T13:47:39.266Z,101312.09
2022-12-20T13:50:23.639Z,101307.00
2022-12-20T13:52:55.454Z,101307.88
2022-12-20T13:55:27.871Z,101305.19
2022-12-20T13:57:57.777Z,101299.16
2022-12-20T14:00:27.860Z,101299.16
2022-12-20T14:02:57.733Z,101299.44
2022-12-20T14:05:28.640Z,101307.16
2022-12-20T14:08:01.786Z,101308.13
2022-12-20T14:10:32.409Z,101297.59
2022-12-20T14:13:04.281Z,101291.38
2022-12-20T14:15:35.947Z,101292.31
2022-12-20T14:18:18.092Z,101290.63
2022-12-20T14:20:48.695Z,101288.00
2022-12-20T14:23:21.324Z,101249.28
2022-12-20T14:25:52.911Z,101292.59
2022-12-20T14:28:28.711Z,101282.03
2022-12-20T14:30:59.604Z,101283.06
2022-12-20T14:33:35.312Z,101287.59
2022-12-20T14:36:09.792Z,101277.91
2022-12-20T14:38:41.519Z,101284.09
2022-12-20T14:41:25.964Z,101280.72
2022-12-20T14:43:56.422Z,101279.81
2022-12-20T14:46:26.134Z,101279.94
2022-12-20T14:49:08.758Z,101281.84
2022-12-20T14:51:38.531Z,101273.94
2022-12-20T14:54:26.112Z,101276.66
2022-12-20T14:57:02.030Z,101268.78
2022-12-20T14:59:32.795Z,101270.63
2022-12-20T15:02:22.662Z,101262.91
2022-12-20T15:04:52.513Z,101263.59
2022-12-20T15:07:32.156Z,101267.25
2022-12-20T15:10:03.288Z,101268.19
2022-12-20T15:12:38.826Z,101261.25
2022-12-20T15:15:28.812Z,101247.31
2022-12-20T15:17:59.601Z,101251.78
2022-12-20T15:20:29.408Z,101261.38
2022-12-20T15:22:58.928Z,101254.81
2022-12-20T15:25:31.528Z,101249.50
2022-12-20T15:28:01.164Z,101252.84
2022-12-20T15:30:30.738Z,101252.91
2022-12-20T15:33:00.315Z,101252.22
2022-12-20T15:35:30.239Z,101244.47
2022-12-20T15:37:59.775Z,101245.56
2022-12-20T15:40:30.704Z,101245.44
2022-12-20T15:43:00.202Z,101240.03
2022-12-20T15:45:29.760Z,101238.59
2022-12-20T15:47:59.294Z,101240.34
2022-12-20T15:50:28.838Z,101230.78
2022-12-20T15:52:59.543Z,101234.34
2022-12-20T15:55:34.363Z,101233.66
2022-12-20T15:58:09.747Z,101233.56
2022-12-20T16:00:41.352Z,101231.88
2022-12-20T16:03:15.211Z,101233.00
2022-12-20T16:05:44.886Z,101223.44
2022-12-20T16:08:14.664Z,101222.75
2022-12-20T16:10:45.628Z,101227.06
2022-12-20T16:13:20.961Z,101228.72
2022-12-20T16:15:51.683Z,101221.94
2022-12-20T16:18:21.545Z,101217.81
2022-12-20T16:20:51.112Z,101220.44
2022-12-20T16:23:22.767Z,101206.44
2022-12-20T16:25:53.843Z,101216.34
2022-12-20T16:28:23.494Z,101211.97
2022-12-20T16:30:53.712Z,101218.03
2022-12-20T16:33:23.623Z,101211.94
2022-12-20T16:35:53.251Z,101212.16
2022-12-20T16:38:22.824Z,101215.44
2022-12-20T16:40:53.748Z,101212.88
2022-12-20T16:43:23.451Z,101214.22
2022-12-20T16:45:53.047Z,101212.41
2022-12-20T16:48:23.450Z,101214.34
2022-12-20T16:50:53.678Z,101209.22
2022-12-20T16:53:23.406Z,101205.78
2022-12-20T16:55:54.472Z,101207.47
2022-12-20T16:58:44.973Z,101214.53
2022-12-20T17:01:16.960Z,101201.47
2022-12-20T17:03:47.737Z,101207.63
2022-12-20T17:06:17.905Z,101209.44
2022-12-20T17:11:36.723Z,101212.19
2022-12-20T17:14:12.237Z,101206.31
2022-12-20T17:16:42.742Z,101207.94
2022-12-20T17:19:13.894Z,101214.31
2022-12-20T17:24:32.871Z,101206.81
2022-12-20T17:27:04.534Z,101210.09
2022-12-20T17:29:35.086Z,101203.44
2022-12-20T17:32:11.924Z,101201.13
2022-12-20T17:34:41.422Z,101207.22
2022-12-20T17:37:10.972Z,101207.97
2022-12-20T17:39:40.636Z,101201.13
2022-12-20T17:42:13.534Z,101196.03
2022-12-20T17:44:43.294Z,101194.97
2022-12-20T17:47:12.866Z,101199.41
2022-12-20T17:49:42.459Z,101197.81
2022-12-20T17:52:14.114Z,101192.69
2022-12-20T17:54:43.674Z,101203.22
2022-12-20T17:57:16.204Z,101200.47
2022-12-20T17:59:46.342Z,101205.75
2022-12-20T18:02:20.738Z,101199.19
2022-12-20T18:04:50.807Z,101199.75
2022-12-20T18:07:20.655Z,101195.47
2022-12-20T18:09:50.422Z,101197.84
2022-12-20T18:12:21.991Z,101195.41
2022-12-20T18:14:52.064Z,101198.81
2022-12-20T18:17:22.078Z,101187.72
2022-12-20T18:19:52.727Z,101193.75
2022-12-20T18:22:22.490Z,101187.72
2022-12-20T18:24:52.012Z,101192.13
2022-12-20T18:27:28.681Z,101178.97
2022-12-20T18:30:00.360Z,101178.41
2022-12-20T18:32:29.954Z,101175.56
2022-12-20T18:34:59.714Z,101180.75
2022-12-20T18:37:29.807Z,101176.38
2022-12-20T18:39:59.443Z,101172.16
2022-12-20T18:42:30.525Z,101166.97
2022-12-20T18:45:00.099Z,101170.63
2022-12-20T18:47:30.028Z,101171.56
2022-12-20T18:49:59.738Z,101172.44
2022-12-20T18:52:29.294Z,101168.91
2022-12-20T18:54:58.926Z,101162.81
2022-12-20T18:57:30.154Z,101169.13
2022-12-20T19:00:00.048Z,101168.53
2022-12-20T19:02:30.216Z,101168.53
2022-12-20T19:05:00.144Z,101165.13
2022-12-20T19:07:29.938Z,101165.94
2022-12-20T19:09:59.909Z,101166.09
2022-12-20T19:12:31.651Z,101164.34
2022-12-20T19:15:02.008Z,101158.09
2022-12-20T19:17:32.405Z,101148.56
2022-12-20T19:20:01.916Z,101151.19
2022-12-20T19:22:31.668Z,101152.88
2022-12-20T19:25:01.150Z,101149.47
2022-12-20T19:27:32.525Z,101151.41
2022-12-20T19:30:02.281Z,101148.56
2022-12-20T19:32:32.141Z,101150.31
2022-12-20T19:35:16.451Z,101143.31
2022-12-20T19:37:51.363Z,101151.09
2022-12-20T19:40:20.939Z,101148.50
2022-12-20T19:42:51.824Z,101147.66
2022-12-20T19:45:21.741Z,101139.78
2022-12-20T19:47:53.994Z,101136.44
2022-12-20T19:50:24.883Z,101138.16
2022-12-20T19:52:54.387Z,101134.84
2022-12-20T19:55:23.917Z,101133.09
2022-12-20T19:57:54.763Z,101143.69
2022-12-20T20:00:24.440Z,101128.06
2022-12-20T20:02:54.341Z,101132.56
2022-12-20T20:05:24.257Z,101124.63
2022-12-20T20:07:54.180Z,101124.50
2022-12-20T20:10:23.934Z,101121.19
2022-12-20T20:12:55.484Z,101113.19
2022-12-20T20:15:25.526Z,101116.81
2022-12-20T20:17:55.410Z,101116.84
2022-12-20T20:20:25.016Z,101117.69
2022-12-20T20:22:54.775Z,101116.84
2022-12-20T20:25:24.266Z,101103.00
2022-12-20T20:27:55.169Z,101105.66
2022-12-20T20:30:24.683Z,101108.25
2022-12-20T20:32:54.227Z,101104.09
2022-12-20T20:35:23.753Z,101095.41
2022-12-20T20:37:53.287Z,101097.13
2022-12-20T20:40:22.777Z,101096.22
2022-12-20T20:42:52.625Z,101090.09
2022-12-20T20:45:23.576Z,101090.19
2022-12-20T20:47:53.140Z,101093.56
2022-12-20T20:50:23.119Z,101093.47
2022-12-20T20:52:52.699Z,101094.34
2022-12-20T20:55:22.227Z,101089.97
2022-12-20T20:57:51.800Z,101085.78
2022-12-20T21:00:21.645Z,101083.16
2022-12-20T21:02:53.039Z,101089.34
2022-12-20T21:06:14.111Z,101081.53
2022-12-20T21:08:12.324Z,101074.53
2022-12-20T21:10:41.950Z,101075.31
2022-12-20T21:13:12.612Z,101073.63
2022-12-20T21:15:43.574Z,101070.00
2022-12-20T21:18:14.824Z,101067.38
2022-12-20T21:20:44.370Z,101059.78
2022-12-20T21:23:14.033Z,101059.72
2022-12-20T21:25:43.656Z,101072.91
2022-12-20T21:28:19.382Z,101058.03
2022-12-20T21:30:58.482Z,101062.44
2022-12-20T21:33:29.900Z,101057.00
2022-12-20T21:36:00.582Z,101051.22
2022-12-20T21:38:30.348Z,101051.22
2022-12-20T21:41:00.757Z,101047.63
2022-12-20T21:43:30.608Z,101045.94
2022-12-20T21:46:00.368Z,101041.47
2022-12-20T21:48:31.417Z,101044.22
2022-12-20T21:51:01.577Z,101041.53
2022-12-20T21:53:31.704Z,101032.75
2022-12-20T21:56:02.007Z,101039.94
2022-12-20T21:58:31.702Z,101033.75
2022-12-20T22:01:01.443Z,101034.72
2022-12-20T22:03:32.449Z,101030.31
2022-12-20T22:06:02.577Z,101017.31
2022-12-20T22:08:32.675Z,101014.69
2022-12-20T22:11:02.624Z,101012.88
2022-12-20T22:13:40.470Z,100998.91
2022-12-20T22:16:12.443Z,101000.81
2022-12-20T22:18:44.597Z,100998.38
2022-12-20T22:21:15.577Z,100996.66
2022-12-20T22:23:45.071Z,100989.56
2022-12-20T22:26:15.834Z,100984.31
2022-12-20T22:28:46.977Z,100982.56
2022-12-20T22:31:17.032Z,100988.72
2022-12-20T22:33:48.201Z,100983.50
2022-12-20T22:36:17.838Z,100990.56
2022-12-20T22:38:48.291Z,100987.97
2022-12-20T22:41:18.499Z,100982.88
2022-12-20T22:43:48.135Z,100980.41
2022-12-20T22:46:18.779Z,100972.38
2022-12-20T22:48:49.709Z,100970.78
2022-12-20T22:51:20.390Z,100960.28
2022-12-20T22:53:50.243Z,100968.91
2022-12-20T22:56:21.147Z,100960.91
2022-12-20T22:58:50.827Z,100952.19
2022-12-20T23:01:21.453Z,100945.31
2022-12-20T23:03:52.648Z,100951.31
2022-12-20T23:06:22.764Z,100946.13
2022-12-20T23:08:52.231Z,100940.91
2022-12-20T23:11:40.943Z,100944.63
2022-12-20T23:14:29.822Z,100936.66
2022-12-20T23:17:00.337Z,100941.94
2022-12-20T23:19:52.145Z,100941.97
2022-12-20T23:22:39.596Z,100941.25
2022-12-20T23:25:10.308Z,100936.94
2022-12-20T23:27:40.849Z,100935.94
2022-12-20T23:30:11.674Z,100930.81
2022-12-20T23:32:44.376Z,100924.91
2022-12-20T23:35:16.896Z,100931.00
2022-12-20T23:37:46.600Z,100938.69
2022-12-20T23:40:17.276Z,100937.81
2022-12-20T23:42:47.373Z,100945.69
2022-12-20T23:45:17.149Z,100936.25
2022-12-20T23:47:46.674Z,100938.03
2022-12-20T23:50:17.848Z,100934.66
2022-12-20T23:52:47.344Z,100942.34
2022-12-20T23:55:16.955Z,100936.34
2022-12-20T23:57:47.104Z,100931.16
